sensor_id;sensor_type;location;lat;lon;timestamp;P1;durP1;ratioP1;P2;durP2;ratioP2
73454;SDS011;61690;51.824;6.306;2023-02-28T00:01:29;3.90;;;1.60;;
73454;SDS011;61690;51.824;6.306;2023-02-28T00:03:55;4.40;;;1.57;;
73454;SDS011;61690;51.824;6.306;2023-02-28T00:06:21;3.80;;;1.50;;
73454;SDS011;61690;51.824;6.306;2023-02-28T00:08:46;4.00;;;1.70;;
73454;SDS011;61690;51.824;6.306;2023-02-28T00:11:12;3.80;;;1.70;;
73454;SDS011;61690;51.824;6.306;2023-02-28T00:13:40;4.07;;;1.90;;
73454;SDS011;61690;51.824;6.306;2023-02-28T00:16:09;5.43;;;1.80;;
73454;SDS011;61690;51.824;6.306;2023-02-28T00:18:38;4.40;;;1.80;;
73454;SDS011;61690;51.824;6.306;2023-02-28T00:21:03;3.93;;;1.50;;
73454;SDS011;61690;51.824;6.306;2023-02-28T00:23:29;4.80;;;1.77;;
73454;SDS011;61690;51.824;6.306;2023-02-28T00:25:55;4.10;;;1.50;;
73454;SDS011;61690;51.824;6.306;2023-02-28T00:28:20;3.70;;;1.70;;
73454;SDS011;61690;51.824;6.306;2023-02-28T00:30:46;3.78;;;1.42;;
73454;SDS011;61690;51.824;6.306;2023-02-28T00:33:11;4.50;;;1.60;;
73454;SDS011;61690;51.824;6.306;2023-02-28T00:35:37;4.80;;;2.00;;
73454;SDS011;61690;51.824;6.306;2023-02-28T00:38:03;4.90;;;1.80;;
73454;SDS011;61690;51.824;6.306;2023-02-28T00:40:28;4.47;;;1.60;;
73454;SDS011;61690;51.824;6.306;2023-02-28T00:42:54;4.43;;;1.90;;
73454;SDS011;61690;51.824;6.306;2023-02-28T00:45:20;4.67;;;1.57;;
73454;SDS011;61690;51.824;6.306;2023-02-28T00:47:45;4.60;;;1.90;;
73454;SDS011;61690;51.824;6.306;2023-02-28T00:50:11;4.37;;;1.50;;
73454;SDS011;61690;51.824;6.306;2023-02-28T00:52:37;3.90;;;1.70;;
73454;SDS011;61690;51.824;6.306;2023-02-28T00:55:02;4.73;;;1.53;;
73454;SDS011;61690;51.824;6.306;2023-02-28T00:57:28;4.47;;;2.00;;
73454;SDS011;61690;51.824;6.306;2023-02-28T00:59:53;3.80;;;1.60;;
73454;SDS011;61690;51.824;6.306;2023-02-28T01:02:22;3.43;;;1.30;;
73454;SDS011;61690;51.824;6.306;2023-02-28T01:04:47;4.30;;;1.35;;
73454;SDS011;61690;51.824;6.306;2023-02-28T01:07:13;3.92;;;1.50;;
73454;SDS011;61690;51.824;6.306;2023-02-28T01:09:39;4.57;;;1.57;;
73454;SDS011;61690;51.824;6.306;2023-02-28T01:12:06;4.43;;;1.40;;
73454;SDS011;61690;51.824;6.306;2023-02-28T01:14:32;4.22;;;1.65;;
73454;SDS011;61690;51.824;6.306;2023-02-28T01:16:57;4.17;;;1.57;;
73454;SDS011;61690;51.824;6.306;2023-02-28T01:19:23;3.90;;;1.60;;
73454;SDS011;61690;51.824;6.306;2023-02-28T01:21:48;5.25;;;1.80;;
73454;SDS011;61690;51.824;6.306;2023-02-28T01:24:13;4.27;;;1.47;;
73454;SDS011;61690;51.824;6.306;2023-02-28T01:26:39;3.80;;;1.30;;
73454;SDS011;61690;51.824;6.306;2023-02-28T01:29:04;3.83;;;1.37;;
73454;SDS011;61690;51.824;6.306;2023-02-28T01:31:29;4.20;;;1.50;;
73454;SDS011;61690;51.824;6.306;2023-02-28T01:33:55;3.97;;;1.67;;
73454;SDS011;61690;51.824;6.306;2023-02-28T01:36:21;4.00;;;1.60;;
73454;SDS011;61690;51.824;6.306;2023-02-28T01:38:48;4.97;;;1.70;;
73454;SDS011;61690;51.824;6.306;2023-02-28T01:41:16;5.00;;;1.67;;
73454;SDS011;61690;51.824;6.306;2023-02-28T01:46:12;3.83;;;1.57;;
73454;SDS011;61690;51.824;6.306;2023-02-28T01:48:40;4.20;;;1.50;;
73454;SDS011;61690;51.824;6.306;2023-02-28T01:51:12;4.28;;;1.50;;
73454;SDS011;61690;51.824;6.306;2023-02-28T01:53:52;3.72;;;1.40;;
73454;SDS011;61690;51.824;6.306;2023-02-28T01:56:24;4.28;;;1.60;;
73454;SDS011;61690;51.824;6.306;2023-02-28T01:58:54;4.18;;;1.85;;
73454;SDS011;61690;51.824;6.306;2023-02-28T02:01:20;3.93;;;1.50;;
73454;SDS011;61690;51.824;6.306;2023-02-28T02:03:54;4.03;;;1.58;;
73454;SDS011;61690;51.824;6.306;2023-02-28T02:06:26;4.25;;;1.60;;
73454;SDS011;61690;51.824;6.306;2023-02-28T02:08:55;3.90;;;1.60;;
73454;SDS011;61690;51.824;6.306;2023-02-28T02:11:20;4.30;;;1.60;;
73454;SDS011;61690;51.824;6.306;2023-02-28T02:13:52;3.95;;;1.52;;
73454;SDS011;61690;51.824;6.306;2023-02-28T02:16:27;4.00;;;1.40;;
73454;SDS011;61690;51.824;6.306;2023-02-28T02:22:12;3.83;;;1.50;;
73454;SDS011;61690;51.824;6.306;2023-02-28T02:36:13;4.00;;;1.60;;
73454;SDS011;61690;51.824;6.306;2023-02-28T02:38:53;4.03;;;1.60;;
73454;SDS011;61690;51.824;6.306;2023-02-28T02:41:40;3.88;;;1.63;;
73454;SDS011;61690;51.824;6.306;2023-02-28T02:44:13;4.65;;;1.60;;
73454;SDS011;61690;51.824;6.306;2023-02-28T02:46:45;4.00;;;1.85;;
73454;SDS011;61690;51.824;6.306;2023-02-28T02:49:15;4.53;;;1.50;;
73454;SDS011;61690;51.824;6.306;2023-02-28T02:51:45;4.20;;;1.90;;
73454;SDS011;61690;51.824;6.306;2023-02-28T02:54:35;4.40;;;1.95;;
73454;SDS011;61690;51.824;6.306;2023-02-28T02:57:01;4.20;;;1.42;;
73454;SDS011;61690;51.824;6.306;2023-02-28T02:59:31;4.07;;;1.55;;
73454;SDS011;61690;51.824;6.306;2023-02-28T03:01:58;4.47;;;1.90;;
73454;SDS011;61690;51.824;6.306;2023-02-28T03:04:28;3.85;;;1.52;;
73454;SDS011;61690;51.824;6.306;2023-02-28T03:06:58;3.70;;;1.80;;
73454;SDS011;61690;51.824;6.306;2023-02-28T03:09:24;4.20;;;1.60;;
73454;SDS011;61690;51.824;6.306;2023-02-28T03:11:51;4.50;;;1.70;;
73454;SDS011;61690;51.824;6.306;2023-02-28T03:14:25;4.40;;;1.55;;
73454;SDS011;61690;51.824;6.306;2023-02-28T03:25:08;4.47;;;1.90;;
73454;SDS011;61690;51.824;6.306;2023-02-28T03:27:54;4.20;;;1.80;;
73454;SDS011;61690;51.824;6.306;2023-02-28T03:33:11;4.00;;;1.50;;
73454;SDS011;61690;51.824;6.306;2023-02-28T03:35:57;3.95;;;1.70;;
73454;SDS011;61690;51.824;6.306;2023-02-28T03:38:47;4.55;;;1.75;;
73454;SDS011;61690;51.824;6.306;2023-02-28T03:41:21;4.40;;;1.42;;
73454;SDS011;61690;51.824;6.306;2023-02-28T03:43:56;4.47;;;1.73;;
73454;SDS011;61690;51.824;6.306;2023-02-28T03:46:27;4.80;;;1.88;;
73454;SDS011;61690;51.824;6.306;2023-02-28T03:49:02;3.92;;;1.83;;
73454;SDS011;61690;51.824;6.306;2023-02-28T03:51:34;4.28;;;1.75;;
73454;SDS011;61690;51.824;6.306;2023-02-28T03:54:04;4.63;;;1.70;;
73454;SDS011;61690;51.824;6.306;2023-02-28T03:56:37;4.47;;;1.57;;
73454;SDS011;61690;51.824;6.306;2023-02-28T03:59:10;4.32;;;1.70;;
73454;SDS011;61690;51.824;6.306;2023-02-28T04:01:40;4.07;;;2.08;;
73454;SDS011;61690;51.824;6.306;2023-02-28T04:04:09;4.40;;;1.90;;
73454;SDS011;61690;51.824;6.306;2023-02-28T04:06:35;4.15;;;1.70;;
73454;SDS011;61690;51.824;6.306;2023-02-28T04:09:02;4.40;;;1.80;;
73454;SDS011;61690;51.824;6.306;2023-02-28T04:11:41;4.07;;;1.65;;
73454;SDS011;61690;51.824;6.306;2023-02-28T04:14:09;4.60;;;1.60;;
73454;SDS011;61690;51.824;6.306;2023-02-28T04:16:36;3.67;;;1.45;;
73454;SDS011;61690;51.824;6.306;2023-02-28T04:19:04;3.90;;;1.67;;
73454;SDS011;61690;51.824;6.306;2023-02-28T04:21:32;4.13;;;2.00;;
73454;SDS011;61690;51.824;6.306;2023-02-28T04:24:05;4.35;;;1.73;;
73454;SDS011;61690;51.824;6.306;2023-02-28T04:26:32;3.70;;;1.45;;
73454;SDS011;61690;51.824;6.306;2023-02-28T04:28:58;3.90;;;1.45;;
73454;SDS011;61690;51.824;6.306;2023-02-28T04:31:24;4.05;;;1.50;;
73454;SDS011;61690;51.824;6.306;2023-02-28T04:33:50;3.87;;;1.33;;
73454;SDS011;61690;51.824;6.306;2023-02-28T04:36:16;3.70;;;1.30;;
73454;SDS011;61690;51.824;6.306;2023-02-28T04:38:43;4.50;;;1.40;;
73454;SDS011;61690;51.824;6.306;2023-02-28T04:41:08;4.15;;;1.70;;
73454;SDS011;61690;51.824;6.306;2023-02-28T04:43:34;4.00;;;1.47;;
73454;SDS011;61690;51.824;6.306;2023-02-28T04:46:01;4.00;;;1.70;;
73454;SDS011;61690;51.824;6.306;2023-02-28T04:48:28;3.60;;;1.55;;
73454;SDS011;61690;51.824;6.306;2023-02-28T04:50:54;3.70;;;1.20;;
73454;SDS011;61690;51.824;6.306;2023-02-28T04:53:20;3.70;;;1.60;;
73454;SDS011;61690;51.824;6.306;2023-02-28T04:55:46;3.70;;;1.50;;
73454;SDS011;61690;51.824;6.306;2023-02-28T04:58:12;4.00;;;1.60;;
73454;SDS011;61690;51.824;6.306;2023-02-28T05:00:38;4.22;;;1.80;;
73454;SDS011;61690;51.824;6.306;2023-02-28T05:03:03;4.33;;;1.80;;
73454;SDS011;61690;51.824;6.306;2023-02-28T05:05:29;3.80;;;1.27;;
73454;SDS011;61690;51.824;6.306;2023-02-28T05:07:54;4.22;;;1.55;;
73454;SDS011;61690;51.824;6.306;2023-02-28T05:10:20;4.27;;;1.83;;
73454;SDS011;61690;51.824;6.306;2023-02-28T05:12:46;3.97;;;1.85;;
73454;SDS011;61690;51.824;6.306;2023-02-28T05:15:13;3.70;;;1.40;;
73454;SDS011;61690;51.824;6.306;2023-02-28T05:17:39;3.80;;;1.58;;
73454;SDS011;61690;51.824;6.306;2023-02-28T05:20:05;3.53;;;1.40;;
73454;SDS011;61690;51.824;6.306;2023-02-28T05:22:31;4.20;;;1.60;;
73454;SDS011;61690;51.824;6.306;2023-02-28T05:24:56;3.70;;;1.50;;
73454;SDS011;61690;51.824;6.306;2023-02-28T05:27:22;5.25;;;1.35;;
73454;SDS011;61690;51.824;6.306;2023-02-28T05:33:10;5.03;;;1.90;;
73454;SDS011;61690;51.824;6.306;2023-02-28T05:35:37;3.80;;;1.30;;
73454;SDS011;61690;51.824;6.306;2023-02-28T05:38:05;3.70;;;1.40;;
73454;SDS011;61690;51.824;6.306;2023-02-28T05:40:30;4.07;;;1.80;;
73454;SDS011;61690;51.824;6.306;2023-02-28T05:42:55;4.23;;;1.60;;
73454;SDS011;61690;51.824;6.306;2023-02-28T05:45:22;3.90;;;1.47;;
73454;SDS011;61690;51.824;6.306;2023-02-28T05:47:49;4.03;;;1.50;;
73454;SDS011;61690;51.824;6.306;2023-02-28T05:50:20;5.47;;;1.73;;
73454;SDS011;61690;51.824;6.306;2023-02-28T05:52:49;4.93;;;1.40;;
73454;SDS011;61690;51.824;6.306;2023-02-28T05:55:17;5.00;;;1.70;;
73454;SDS011;61690;51.824;6.306;2023-02-28T05:57:43;4.70;;;1.50;;
73454;SDS011;61690;51.824;6.306;2023-02-28T06:00:09;3.63;;;1.42;;
73454;SDS011;61690;51.824;6.306;2023-02-28T06:02:35;4.00;;;1.20;;
73454;SDS011;61690;51.824;6.306;2023-02-28T06:05:01;4.37;;;1.60;;
73454;SDS011;61690;51.824;6.306;2023-02-28T06:07:26;4.68;;;1.33;;
73454;SDS011;61690;51.824;6.306;2023-02-28T06:09:51;5.30;;;1.20;;
73454;SDS011;61690;51.824;6.306;2023-02-28T06:12:17;4.23;;;1.50;;
73454;SDS011;61690;51.824;6.306;2023-02-28T06:14:42;4.03;;;1.60;;
73454;SDS011;61690;51.824;6.306;2023-02-28T06:17:08;4.05;;;1.30;;
73454;SDS011;61690;51.824;6.306;2023-02-28T06:19:34;3.63;;;1.30;;
73454;SDS011;61690;51.824;6.306;2023-02-28T06:22:03;5.37;;;1.43;;
73454;SDS011;61690;51.824;6.306;2023-02-28T06:24:29;3.63;;;1.40;;
73454;SDS011;61690;51.824;6.306;2023-02-28T06:26:55;5.90;;;2.63;;
73454;SDS011;61690;51.824;6.306;2023-02-28T06:29:22;6.57;;;2.60;;
73454;SDS011;61690;51.824;6.306;2023-02-28T06:31:48;5.38;;;2.30;;
73454;SDS011;61690;51.824;6.306;2023-02-28T06:34:14;5.50;;;2.40;;
73454;SDS011;61690;51.824;6.306;2023-02-28T06:36:40;6.35;;;2.10;;
73454;SDS011;61690;51.824;6.306;2023-02-28T06:39:06;4.85;;;2.10;;
73454;SDS011;61690;51.824;6.306;2023-02-28T06:41:33;4.93;;;1.90;;
73454;SDS011;61690;51.824;6.306;2023-02-28T06:44:03;5.50;;;2.05;;
73454;SDS011;61690;51.824;6.306;2023-02-28T06:46:30;6.13;;;2.10;;
73454;SDS011;61690;51.824;6.306;2023-02-28T06:48:56;4.88;;;2.00;;
73454;SDS011;61690;51.824;6.306;2023-02-28T06:51:22;6.27;;;2.20;;
73454;SDS011;61690;51.824;6.306;2023-02-28T06:53:50;4.90;;;2.28;;
73454;SDS011;61690;51.824;6.306;2023-02-28T06:56:16;6.13;;;2.30;;
73454;SDS011;61690;51.824;6.306;2023-02-28T06:58:45;5.37;;;2.10;;
73454;SDS011;61690;51.824;6.306;2023-02-28T07:01:14;4.15;;;1.70;;
73454;SDS011;61690;51.824;6.306;2023-02-28T07:03:52;4.90;;;1.90;;
73454;SDS011;61690;51.824;6.306;2023-02-28T07:06:19;6.10;;;2.08;;
73454;SDS011;61690;51.824;6.306;2023-02-28T07:08:45;5.10;;;1.90;;
73454;SDS011;61690;51.824;6.306;2023-02-28T07:11:10;5.00;;;2.00;;
73454;SDS011;61690;51.824;6.306;2023-02-28T07:13:36;6.67;;;2.10;;
73454;SDS011;61690;51.824;6.306;2023-02-28T07:16:03;5.38;;;1.98;;
73454;SDS011;61690;51.824;6.306;2023-02-28T07:18:31;4.40;;;1.70;;
73454;SDS011;61690;51.824;6.306;2023-02-28T07:20:56;4.70;;;2.20;;
73454;SDS011;61690;51.824;6.306;2023-02-28T07:23:22;4.67;;;1.80;;
73454;SDS011;61690;51.824;6.306;2023-02-28T07:25:49;6.53;;;1.90;;
73454;SDS011;61690;51.824;6.306;2023-02-28T07:28:15;4.72;;;1.85;;
73454;SDS011;61690;51.824;6.306;2023-02-28T07:30:41;6.53;;;2.10;;
73454;SDS011;61690;51.824;6.306;2023-02-28T07:33:06;5.10;;;1.80;;
73454;SDS011;61690;51.824;6.306;2023-02-28T07:35:32;3.95;;;1.50;;
73454;SDS011;61690;51.824;6.306;2023-02-28T07:37:58;6.43;;;1.80;;
73454;SDS011;61690;51.824;6.306;2023-02-28T07:40:24;5.45;;;1.88;;
73454;SDS011;61690;51.824;6.306;2023-02-28T07:42:49;3.90;;;1.60;;
73454;SDS011;61690;51.824;6.306;2023-02-28T07:45:15;4.85;;;2.00;;
73454;SDS011;61690;51.824;6.306;2023-02-28T07:47:41;3.97;;;1.30;;
73454;SDS011;61690;51.824;6.306;2023-02-28T07:50:07;4.83;;;1.60;;
73454;SDS011;61690;51.824;6.306;2023-02-28T07:52:35;4.38;;;1.83;;
73454;SDS011;61690;51.824;6.306;2023-02-28T07:55:01;4.68;;;1.60;;
73454;SDS011;61690;51.824;6.306;2023-02-28T07:57:26;4.37;;;1.50;;
73454;SDS011;61690;51.824;6.306;2023-02-28T07:59:53;5.83;;;1.47;;
73454;SDS011;61690;51.824;6.306;2023-02-28T08:02:18;5.03;;;1.65;;
73454;SDS011;61690;51.824;6.306;2023-02-28T08:04:45;4.13;;;1.42;;
73454;SDS011;61690;51.824;6.306;2023-02-28T08:07:12;4.13;;;1.57;;
73454;SDS011;61690;51.824;6.306;2023-02-28T08:09:38;4.05;;;1.60;;
73454;SDS011;61690;51.824;6.306;2023-02-28T08:12:04;4.85;;;1.80;;
73454;SDS011;61690;51.824;6.306;2023-02-28T08:14:30;4.57;;;1.70;;
73454;SDS011;61690;51.824;6.306;2023-02-28T08:16:55;4.30;;;1.80;;
73454;SDS011;61690;51.824;6.306;2023-02-28T08:19:20;3.83;;;1.40;;
73454;SDS011;61690;51.824;6.306;2023-02-28T08:21:46;4.10;;;1.70;;
73454;SDS011;61690;51.824;6.306;2023-02-28T08:24:11;3.90;;;1.37;;
73454;SDS011;61690;51.824;6.306;2023-02-28T08:26:36;5.57;;;1.50;;
73454;SDS011;61690;51.824;6.306;2023-02-28T08:29:02;3.70;;;1.40;;
73454;SDS011;61690;51.824;6.306;2023-02-28T08:31:27;4.88;;;1.70;;
73454;SDS011;61690;51.824;6.306;2023-02-28T08:33:52;4.40;;;1.80;;
73454;SDS011;61690;51.824;6.306;2023-02-28T08:36:21;4.27;;;1.73;;
73454;SDS011;61690;51.824;6.306;2023-02-28T08:38:46;3.80;;;1.40;;
73454;SDS011;61690;51.824;6.306;2023-02-28T08:41:12;4.47;;;1.53;;
73454;SDS011;61690;51.824;6.306;2023-02-28T08:43:38;4.63;;;1.50;;
73454;SDS011;61690;51.824;6.306;2023-02-28T08:46:05;4.45;;;1.42;;
73454;SDS011;61690;51.824;6.306;2023-02-28T08:48:31;4.40;;;1.50;;
73454;SDS011;61690;51.824;6.306;2023-02-28T08:51:02;3.85;;;1.10;;
73454;SDS011;61690;51.824;6.306;2023-02-28T08:53:30;5.38;;;1.30;;
73454;SDS011;61690;51.824;6.306;2023-02-28T08:55:56;4.70;;;1.40;;
73454;SDS011;61690;51.824;6.306;2023-02-28T08:58:26;4.65;;;1.60;;
73454;SDS011;61690;51.824;6.306;2023-02-28T09:00:52;4.32;;;1.20;;
73454;SDS011;61690;51.824;6.306;2023-02-28T09:03:18;4.38;;;1.40;;
73454;SDS011;61690;51.824;6.306;2023-02-28T09:05:56;3.53;;;1.20;;
73454;SDS011;61690;51.824;6.306;2023-02-28T09:08:24;6.22;;;1.60;;
73454;SDS011;61690;51.824;6.306;2023-02-28T09:10:50;3.50;;;1.33;;
73454;SDS011;61690;51.824;6.306;2023-02-28T09:13:16;4.10;;;1.20;;
73454;SDS011;61690;51.824;6.306;2023-02-28T09:15:42;4.28;;;1.40;;
73454;SDS011;61690;51.824;6.306;2023-02-28T09:18:07;3.70;;;1.20;;
73454;SDS011;61690;51.824;6.306;2023-02-28T09:20:33;3.40;;;1.20;;
73454;SDS011;61690;51.824;6.306;2023-02-28T09:22:59;3.67;;;1.38;;
73454;SDS011;61690;51.824;6.306;2023-02-28T09:25:25;5.50;;;1.40;;
73454;SDS011;61690;51.824;6.306;2023-02-28T09:27:50;4.17;;;1.40;;
73454;SDS011;61690;51.824;6.306;2023-02-28T09:30:17;3.70;;;1.40;;
73454;SDS011;61690;51.824;6.306;2023-02-28T09:32:43;4.20;;;1.20;;
73454;SDS011;61690;51.824;6.306;2023-02-28T09:35:17;4.50;;;1.50;;
73454;SDS011;61690;51.824;6.306;2023-02-28T09:37:43;4.13;;;1.33;;
73454;SDS011;61690;51.824;6.306;2023-02-28T09:40:09;4.57;;;1.60;;
73454;SDS011;61690;51.824;6.306;2023-02-28T09:42:35;4.93;;;1.53;;
73454;SDS011;61690;51.824;6.306;2023-02-28T09:45:02;4.83;;;1.43;;
73454;SDS011;61690;51.824;6.306;2023-02-28T09:47:37;3.63;;;1.27;;
73454;SDS011;61690;51.824;6.306;2023-02-28T09:53:21;3.70;;;1.30;;
73454;SDS011;61690;51.824;6.306;2023-02-28T09:55:58;4.10;;;1.40;;
73454;SDS011;61690;51.824;6.306;2023-02-28T10:06:57;3.55;;;1.35;;
73454;SDS011;61690;51.824;6.306;2023-02-28T10:09:32;3.70;;;1.20;;
73454;SDS011;61690;51.824;6.306;2023-02-28T10:12:00;3.70;;;1.40;;
73454;SDS011;61690;51.824;6.306;2023-02-28T10:14:29;4.13;;;1.20;;
73454;SDS011;61690;51.824;6.306;2023-02-28T10:19:55;3.40;;;1.00;;
73454;SDS011;61690;51.824;6.306;2023-02-28T10:24:59;3.72;;;1.30;;
73454;SDS011;61690;51.824;6.306;2023-02-28T10:27:31;3.90;;;1.30;;
73454;SDS011;61690;51.824;6.306;2023-02-28T10:29:58;3.65;;;1.02;;
73454;SDS011;61690;51.824;6.306;2023-02-28T10:32:29;4.27;;;1.10;;
73454;SDS011;61690;51.824;6.306;2023-02-28T10:37:31;4.32;;;1.20;;
73454;SDS011;61690;51.824;6.306;2023-02-28T10:39:57;3.80;;;1.20;;
73454;SDS011;61690;51.824;6.306;2023-02-28T10:42:26;3.70;;;1.47;;
73454;SDS011;61690;51.824;6.306;2023-02-28T10:45:04;4.00;;;1.23;;
73454;SDS011;61690;51.824;6.306;2023-02-28T10:47:57;3.70;;;1.23;;
73454;SDS011;61690;51.824;6.306;2023-02-28T10:50:35;3.53;;;1.00;;
73454;SDS011;61690;51.824;6.306;2023-02-28T10:53:10;3.85;;;1.20;;
73454;SDS011;61690;51.824;6.306;2023-02-28T10:55:40;3.75;;;1.20;;
73454;SDS011;61690;51.824;6.306;2023-02-28T11:03:58;3.90;;;1.40;;
73454;SDS011;61690;51.824;6.306;2023-02-28T11:06:29;4.13;;;1.10;;
73454;SDS011;61690;51.824;6.306;2023-02-28T11:08:57;4.37;;;1.17;;
73454;SDS011;61690;51.824;6.306;2023-02-28T11:11:25;4.70;;;1.23;;
73454;SDS011;61690;51.824;6.306;2023-02-28T11:13:54;3.70;;;1.20;;
73454;SDS011;61690;51.824;6.306;2023-02-28T11:16:31;3.80;;;1.20;;
73454;SDS011;61690;51.824;6.306;2023-02-28T11:19:01;3.60;;;0.90;;
73454;SDS011;61690;51.824;6.306;2023-02-28T11:21:30;3.83;;;1.07;;
73454;SDS011;61690;51.824;6.306;2023-02-28T11:27:20;4.22;;;1.40;;
73454;SDS011;61690;51.824;6.306;2023-02-28T11:29:50;4.60;;;1.10;;
73454;SDS011;61690;51.824;6.306;2023-02-28T11:34:44;4.55;;;1.20;;
73454;SDS011;61690;51.824;6.306;2023-02-28T11:37:11;4.32;;;1.50;;
73454;SDS011;61690;51.824;6.306;2023-02-28T11:39:43;4.97;;;1.40;;
73454;SDS011;61690;51.824;6.306;2023-02-28T11:47:24;4.88;;;1.17;;
73454;SDS011;61690;51.824;6.306;2023-02-28T11:55:09;5.40;;;1.30;;
73454;SDS011;61690;51.824;6.306;2023-02-28T11:57:59;5.20;;;1.35;;
73454;SDS011;61690;51.824;6.306;2023-02-28T12:00:57;5.28;;;1.23;;
73454;SDS011;61690;51.824;6.306;2023-02-28T12:04:04;5.63;;;1.63;;
73454;SDS011;61690;51.824;6.306;2023-02-28T12:06:57;4.07;;;1.20;;
73454;SDS011;61690;51.824;6.306;2023-02-28T12:09:34;4.40;;;1.40;;
73454;SDS011;61690;51.824;6.306;2023-02-28T12:12:25;4.25;;;1.10;;
73454;SDS011;61690;51.824;6.306;2023-02-28T12:15:36;4.05;;;1.23;;
73454;SDS011;61690;51.824;6.306;2023-02-28T12:20:37;4.60;;;1.30;;
73454;SDS011;61690;51.824;6.306;2023-02-28T12:29:19;5.75;;;1.60;;
73454;SDS011;61690;51.824;6.306;2023-02-28T12:34:51;4.85;;;1.50;;
73454;SDS011;61690;51.824;6.306;2023-02-28T12:37:33;4.80;;;1.10;;
73454;SDS011;61690;51.824;6.306;2023-02-28T12:40:23;4.68;;;1.30;;
73454;SDS011;61690;51.824;6.306;2023-02-28T12:42:57;4.85;;;1.27;;
73454;SDS011;61690;51.824;6.306;2023-02-28T12:48:08;5.40;;;1.45;;
73454;SDS011;61690;51.824;6.306;2023-02-28T12:50:38;5.47;;;1.40;;
73454;SDS011;61690;51.824;6.306;2023-02-28T12:53:21;3.97;;;1.20;;
73454;SDS011;61690;51.824;6.306;2023-02-28T13:02:09;3.85;;;1.10;;
73454;SDS011;61690;51.824;6.306;2023-02-28T13:05:02;4.63;;;1.13;;
73454;SDS011;61690;51.824;6.306;2023-02-28T13:07:54;4.18;;;1.30;;
73454;SDS011;61690;51.824;6.306;2023-02-28T13:10:45;5.40;;;1.20;;
73454;SDS011;61690;51.824;6.306;2023-02-28T13:13:18;3.72;;;1.08;;
73454;SDS011;61690;51.824;6.306;2023-02-28T13:18:43;4.23;;;1.27;;
73454;SDS011;61690;51.824;6.306;2023-02-28T13:23:58;4.43;;;1.13;;
73454;SDS011;61690;51.824;6.306;2023-02-28T13:34:27;4.85;;;1.20;;
73454;SDS011;61690;51.824;6.306;2023-02-28T13:37:20;5.20;;;1.30;;
73454;SDS011;61690;51.824;6.306;2023-02-28T13:39:50;4.50;;;1.05;;
73454;SDS011;61690;51.824;6.306;2023-02-28T13:50:31;4.13;;;1.00;;
73454;SDS011;61690;51.824;6.306;2023-02-28T14:01:45;4.60;;;1.05;;
73454;SDS011;61690;51.824;6.306;2023-02-28T14:06:48;4.35;;;1.00;;
73454;SDS011;61690;51.824;6.306;2023-02-28T14:15:01;8.85;;;1.10;;
73454;SDS011;61690;51.824;6.306;2023-02-28T14:17:30;4.37;;;1.20;;
73454;SDS011;61690;51.824;6.306;2023-02-28T14:19:56;4.05;;;1.10;;
73454;SDS011;61690;51.824;6.306;2023-02-28T14:22:40;4.07;;;1.10;;
73454;SDS011;61690;51.824;6.306;2023-02-28T14:25:33;4.28;;;1.10;;
73454;SDS011;61690;51.824;6.306;2023-02-28T14:28:11;4.25;;;1.10;;
73454;SDS011;61690;51.824;6.306;2023-02-28T14:34:02;4.43;;;0.80;;
73454;SDS011;61690;51.824;6.306;2023-02-28T14:36:40;4.07;;;1.23;;
73454;SDS011;61690;51.824;6.306;2023-02-28T14:39:10;3.88;;;1.00;;
73454;SDS011;61690;51.824;6.306;2023-02-28T14:41:39;3.90;;;0.80;;
73454;SDS011;61690;51.824;6.306;2023-02-28T14:44:23;4.77;;;1.00;;
73454;SDS011;61690;51.824;6.306;2023-02-28T14:46:54;3.58;;;0.88;;
73454;SDS011;61690;51.824;6.306;2023-02-28T14:49:29;4.60;;;1.00;;
73454;SDS011;61690;51.824;6.306;2023-02-28T14:52:06;4.65;;;1.10;;
73454;SDS011;61690;51.824;6.306;2023-02-28T14:54:34;3.95;;;1.00;;
73454;SDS011;61690;51.824;6.306;2023-02-28T14:57:06;3.60;;;0.90;;
73454;SDS011;61690;51.824;6.306;2023-02-28T14:59:56;4.32;;;1.00;;
73454;SDS011;61690;51.824;6.306;2023-02-28T15:02:29;4.35;;;0.85;;
73454;SDS011;61690;51.824;6.306;2023-02-28T15:04:59;4.40;;;1.17;;
73454;SDS011;61690;51.824;6.306;2023-02-28T15:07:34;4.95;;;0.95;;
73454;SDS011;61690;51.824;6.306;2023-02-28T15:10:11;4.67;;;0.93;;
73454;SDS011;61690;51.824;6.306;2023-02-28T15:12:56;4.55;;;1.10;;
73454;SDS011;61690;51.824;6.306;2023-02-28T15:21:13;4.15;;;0.80;;
73454;SDS011;61690;51.824;6.306;2023-02-28T15:23:46;6.47;;;1.00;;
73454;SDS011;61690;51.824;6.306;2023-02-28T15:26:18;5.03;;;0.90;;
73454;SDS011;61690;51.824;6.306;2023-02-28T15:28:46;3.57;;;1.00;;
73454;SDS011;61690;51.824;6.306;2023-02-28T15:31:23;4.57;;;0.80;;
73454;SDS011;61690;51.824;6.306;2023-02-28T15:33:54;3.65;;;0.70;;
73454;SDS011;61690;51.824;6.306;2023-02-28T15:36:21;3.92;;;0.90;;
73454;SDS011;61690;51.824;6.306;2023-02-28T15:38:52;4.22;;;0.80;;
73454;SDS011;61690;51.824;6.306;2023-02-28T15:41:24;4.30;;;0.77;;
73454;SDS011;61690;51.824;6.306;2023-02-28T15:46:40;7.15;;;1.40;;
73454;SDS011;61690;51.824;6.306;2023-02-28T15:49:19;8.32;;;1.33;;
73454;SDS011;61690;51.824;6.306;2023-02-28T15:51:45;5.55;;;1.17;;
73454;SDS011;61690;51.824;6.306;2023-02-28T15:54:30;4.97;;;1.00;;
73454;SDS011;61690;51.824;6.306;2023-02-28T15:57:03;4.40;;;0.68;;
73454;SDS011;61690;51.824;6.306;2023-02-28T15:59:33;6.22;;;1.10;;
73454;SDS011;61690;51.824;6.306;2023-02-28T16:02:16;5.63;;;1.10;;
73454;SDS011;61690;51.824;6.306;2023-02-28T16:05:46;6.50;;;1.17;;
73454;SDS011;61690;51.824;6.306;2023-02-28T16:08:06;5.03;;;0.93;;
73454;SDS011;61690;51.824;6.306;2023-02-28T16:10:38;5.72;;;0.90;;
73454;SDS011;61690;51.824;6.306;2023-02-28T16:13:03;4.10;;;0.90;;
73454;SDS011;61690;51.824;6.306;2023-02-28T16:15:30;3.90;;;0.73;;
73454;SDS011;61690;51.824;6.306;2023-02-28T16:18:00;4.82;;;0.90;;
73454;SDS011;61690;51.824;6.306;2023-02-28T16:20:27;3.57;;;0.93;;
73454;SDS011;61690;51.824;6.306;2023-02-28T16:22:54;6.65;;;0.70;;
73454;SDS011;61690;51.824;6.306;2023-02-28T16:25:20;4.45;;;0.70;;
73454;SDS011;61690;51.824;6.306;2023-02-28T16:27:59;4.27;;;0.87;;
73454;SDS011;61690;51.824;6.306;2023-02-28T16:30:26;6.68;;;0.90;;
73454;SDS011;61690;51.824;6.306;2023-02-28T16:32:56;4.45;;;0.90;;
73454;SDS011;61690;51.824;6.306;2023-02-28T16:35:22;3.53;;;0.68;;
73454;SDS011;61690;51.824;6.306;2023-02-28T16:37:48;5.40;;;1.17;;
73454;SDS011;61690;51.824;6.306;2023-02-28T16:40:16;4.28;;;0.73;;
73454;SDS011;61690;51.824;6.306;2023-02-28T16:42:48;4.53;;;0.80;;
73454;SDS011;61690;51.824;6.306;2023-02-28T16:45:25;4.63;;;0.60;;
73454;SDS011;61690;51.824;6.306;2023-02-28T16:47:52;3.97;;;0.75;;
73454;SDS011;61690;51.824;6.306;2023-02-28T16:50:24;5.03;;;0.80;;
73454;SDS011;61690;51.824;6.306;2023-02-28T16:52:51;4.30;;;0.70;;
73454;SDS011;61690;51.824;6.306;2023-02-28T16:55:17;5.07;;;1.13;;
73454;SDS011;61690;51.824;6.306;2023-02-28T16:57:43;3.27;;;0.60;;
73454;SDS011;61690;51.824;6.306;2023-02-28T17:00:12;3.22;;;0.70;;
73454;SDS011;61690;51.824;6.306;2023-02-28T17:02:38;6.35;;;1.02;;
73454;SDS011;61690;51.824;6.306;2023-02-28T17:05:04;4.53;;;0.80;;
73454;SDS011;61690;51.824;6.306;2023-02-28T17:07:30;3.85;;;0.60;;
73454;SDS011;61690;51.824;6.306;2023-02-28T17:09:55;3.90;;;0.80;;
73454;SDS011;61690;51.824;6.306;2023-02-28T17:12:20;4.03;;;0.90;;
73454;SDS011;61690;51.824;6.306;2023-02-28T17:14:46;4.47;;;0.80;;
73454;SDS011;61690;51.824;6.306;2023-02-28T17:17:19;3.47;;;0.50;;
73454;SDS011;61690;51.824;6.306;2023-02-28T17:19:46;4.32;;;0.60;;
73454;SDS011;61690;51.824;6.306;2023-02-28T17:22:12;3.07;;;0.50;;
73454;SDS011;61690;51.824;6.306;2023-02-28T17:24:39;3.33;;;0.85;;
73454;SDS011;61690;51.824;6.306;2023-02-28T17:27:04;3.67;;;0.70;;
73454;SDS011;61690;51.824;6.306;2023-02-28T17:29:30;3.22;;;0.90;;